Los Angeles, CA (90016)

12:55 AM PDT on August 28, 2014 (GMT -0700)
CBS Radio, Venice and Fairfax | Change Station
CLOSE
Current Station
Personal Weather Station
Location: Los Angeles, CA
Elevation: 97 ft
Nearby Weather Stations
Active Advisory: High Surf Advisory Active Notice: Record Report

Elev 97 ft 34.04 °N, 118.37 °W | Updated 4 minutes ago

Clear
Clear
71.4 °F
Feels Like 74 °F
N
0.0
Wind Variable Wind from WSW
Gusts 0.0 mph

Today
High -- | Low -- °F
--% Chance of Precip.
Yesterday
High -- | Low -- °F
Precip. -- in
6:24 AM 7:24 PM
Waxing Crescent, 7% visible
Pressure 30.00 in
Visibility 10.0 miles
Clouds Clear
Heat Index 74 °F
Dew Point 62 °F
Humidity 72%
Rainfall 0.00 in
Snow Depth Not available.
UV 0 out of 12
Pollen 7.50 out of 12
Ozone Good
Flu Activity Not available.
METAR KSMO 280651Z AUTO 06004KT 10SM CLR 22/16 A3001 RMK AO2 SLP159 T02220156

More Conditions Fewer Conditions

Pressure 30.00 in
Visibility 10.0 miles
Clouds Clear
Heat Index 74 °F
Dew Point 62 °F
Humidity 72%
Rainfall 0.00 in
Snow Depth Not available.
UV 0 out of 12
Pollen 7.50 out of 12
Ozone Good
Flu Activity Not available.
METAR KSMO 280651Z AUTO 06004KT 10SM CLR 22/16 A3001 RMK AO2 SLP159 T02220156

More Conditions Fewer Conditions

10-Day Weather Forecast

Almanac

Astronomy

Aug. 28, 2014 Rise Set
Actual Time 6:24 AM PDT 7:24 PM PDT
Civil Twilight 5:58 AM PDT 7:49 PM PDT
Nautical Twilight 5:28 AM PDT 8:20 PM PDT
Astronomical Twilight 4:56 AM PDT 8:51 PM PDT
Moon 9:11 AM PDT 9:01 PM PDT
Length of Visible Light 13h 51m
Length of Day
13h 00m
Tomorrow will be 2m 0s shorter.
Waxing Crescent, 7% of the Moon is Illuminated
Today
Waxing Crescent
Sep 2
First Quarter
Sep 8
Full
Sep 15
Last Quarter
Sep 24
New

Today's Extremes

State Highs State Lows

Community

WunderPhotos

Upload Photos

1,747,916 photos uploaded!

Nearby

Air Quality

  Air Quality AQ Index Pollutant
Yesterday Good
OZONE
Current Good
OZONE
Thursday Good
PM10
Thursday Good
OZONE
Thursday Good
CO
Thursday Good
NO2

Snow Depth

Station Depth Elevation
Leavitt Lake 1 in 9400 ft
Leavitt Meadows 1 in 7200 ft
Summit Meadow 1 in 9122 ft
Blue Lakes 0 in 8000 ft
Monitor Pass 0 in 8350 ft

Earthquake Activity

City Distance Mag. Time & Date
San Fernando, California 15 miles 2.5 4:57 AM PDT
2014-08-26
Minimum magnitude displayed is 2.5.

Coastal Water Temperatures

Place Temperature
Santa Monica Pier 71.1 °F
Los Angeles, CA 66.0 °F
La Jolla, CA 73.0 °F

Nearby Weather Stations